Time;durP1;ratioP1;P1;durP2;ratioP2;P2;SDS_P1;SDS_P2;PMS_P1;PMS_P2;Temp;Humidity;BMP_temperature;BMP_pressure;BME280_temperature;BME280_humidity;BME280_pressure;Samples;Min_cycle;Max_cycle;Signal;HPM_P1;HPM_P2
2021/12/15 00:01:33;;;;;;;27.77;17.03;;;;;;;8.24;94.14;102531.69;5116113;28;20196;-72
2021/12/15 00:04:01;;;;;;;35.60;17.63;;;;;;;8.32;93.95;102529.91;5098404;28;20172;-73
2021/12/15 00:06:27;;;;;;;27.17;17.07;;;;;;;8.22;93.87;102533.44;5116274;28;20185;-72
2021/12/15 00:08:56;;;;;;;31.57;17.27;;;;;;;8.19;94.13;102523.84;5115845;28;20205;-73
2021/12/15 00:11:32;;;;;;;29.63;17.57;;;;;;;8.20;93.84;102529.94;5115982;28;20200;-73
2021/12/15 00:14:00;;;;;;;31.87;16.63;;;;;;;8.22;93.79;102531.69;5116587;28;20187;-77
2021/12/15 00:16:28;;;;;;;25.60;15.53;;;;;;;8.22;93.83;102528.22;5115856;28;20196;-76
2021/12/15 00:18:55;;;;;;;24.57;15.50;;;;;;;8.24;93.88;102534.28;5116107;28;20258;-75
2021/12/15 00:21:22;;;;;;;28.67;16.27;;;;;;;8.31;93.62;102528.19;5115974;28;20189;-75
2021/12/15 00:23:49;;;;;;;23.17;15.93;;;;;;;8.25;93.63;102522.97;5115736;28;20185;-76
2021/12/15 00:26:17;;;;;;;26.63;16.00;;;;;;;8.23;93.43;102530.81;5116513;28;20185;-76
2021/12/15 00:28:45;;;;;;;23.63;15.77;;;;;;;8.39;92.82;102528.19;5115525;28;20215;-75
2021/12/15 00:31:13;;;;;;;22.47;14.60;;;;;;;8.35;92.70;102534.25;5115474;28;20211;-75
2021/12/15 00:33:41;;;;;;;25.87;15.57;;;;;;;8.27;93.09;102526.44;5115478;28;20181;-75
2021/12/15 00:36:08;;;;;;;28.40;16.93;;;;;;;8.39;92.92;102530.81;5116025;28;20204;-75
2021/12/15 00:38:34;;;;;;;24.23;15.40;;;;;;;8.49;92.51;102535.13;5115875;28;20205;-75
2021/12/15 00:41:01;;;;;;;27.53;15.93;;;;;;;8.40;92.63;102529.94;5098240;28;20190;-72
2021/12/15 00:43:28;;;;;;;23.00;15.53;;;;;;;8.40;92.65;102536.03;5098330;28;20193;-72
2021/12/15 00:45:55;;;;;;;20.70;15.37;;;;;;;8.37;92.87;102537.78;5096855;28;20650;-72
2021/12/15 00:48:21;;;;;;;26.37;15.70;;;;;;;8.36;92.80;102539.53;5114397;28;20223;-72
2021/12/15 00:50:48;;;;;;;21.13;15.73;;;;;;;8.34;92.82;102542.97;5115334;28;20212;-72
2021/12/15 00:53:15;;;;;;;22.30;15.20;;;;;;;8.40;92.51;102533.41;5115258;28;20196;-72
2021/12/15 00:55:43;;;;;;;31.23;15.97;;;;;;;8.36;92.39;102536.91;5130958;27;20189;-72
2021/12/15 00:58:11;;;;;;;22.20;15.33;;;;;;;8.28;92.39;102525.56;5096833;28;20195;-72
2021/12/15 01:00:46;;;;;;;19.13;13.53;;;;;;;8.23;92.62;102532.56;5115358;28;20194;-72
2021/12/15 01:03:14;;;;;;;22.00;14.73;;;;;;;8.32;92.50;102524.69;5115282;28;20576;-72
2021/12/15 01:05:46;;;;;;;27.27;15.23;;;;;;;8.35;92.13;102521.19;5096855;28;20197;-75
2021/12/15 01:08:20;;;;;;;24.20;14.13;;;;;;;8.27;92.20;102526.44;5115338;28;20174;-75
2021/12/15 01:21:50;;;;;;;20.93;13.37;;;;;;;8.21;92.47;102542.13;5114700;28;20192;-75
2021/12/15 01:24:17;;;;;;;18.83;13.40;;;;;;;8.28;92.51;102541.22;5114557;28;20212;-72
2021/12/15 01:26:44;;;;;;;25.90;14.07;;;;;;;8.25;92.33;102538.63;5096538;28;20198;-72
2021/12/15 01:29:11;;;;;;;20.17;14.40;;;;;;;8.33;92.31;102541.22;5114241;28;20682;-73
2021/12/15 01:31:37;;;;;;;23.27;13.93;;;;;;;8.29;92.01;102540.38;5096366;28;20193;-72
2021/12/15 01:34:04;;;;;;;22.67;13.53;;;;;;;8.33;92.18;102533.41;5096450;28;20185;-72
2021/12/15 01:36:31;;;;;;;23.10;14.53;;;;;;;8.27;92.15;102537.75;5114615;28;20185;-72
2021/12/15 01:38:57;;;;;;;23.13;13.93;;;;;;;8.40;91.73;102532.53;5095919;28;20230;-73
2021/12/15 01:41:24;;;;;;;24.57;13.77;;;;;;;8.40;91.69;102535.16;5114607;28;20189;-72
2021/12/15 01:46:56;;;;;;;19.13;13.13;;;;;;;8.58;90.95;102535.09;5114794;28;20179;-75
2021/12/15 01:49:37;;;;;;;18.00;13.07;;;;;;;8.55;90.81;102533.34;5114515;28;20197;-75
2021/12/15 01:52:31;;;;;;;16.70;13.83;;;;;;;8.49;90.76;102535.13;5114103;28;20264;-75
2021/12/15 01:55:04;;;;;;;16.03;13.37;;;;;;;8.43;91.10;102536.03;5106847;28;20270;-75
2021/12/15 01:57:34;;;;;;;14.23;12.73;;;;;;;8.43;91.06;102529.91;5130727;27;20528;-75
2021/12/15 02:00:05;;;;;;;20.67;14.47;;;;;;;8.28;91.64;102529.03;5095592;28;20311;-73
2021/12/15 02:02:40;;;;;;;25.00;15.20;;;;;;;8.22;92.01;102528.22;5128994;27;20185;-72
2021/12/15 02:05:08;;;;;;;27.87;14.70;;;;;;;8.25;92.32;102536.91;5114113;28;20234;-72
2021/12/15 02:07:36;;;;;;;22.03;15.10;;;;;;;8.32;92.40;102537.75;5095594;28;20234;-72
2021/12/15 02:10:06;;;;;;;24.17;15.40;;;;;;;8.43;91.96;102540.34;5095427;28;20223;-72
2021/12/15 02:12:52;;;;;;;20.40;15.43;;;;;;;8.21;92.68;102537.75;5114381;28;20169;-72
2021/12/15 02:15:26;;;;;;;25.77;16.50;;;;;;;8.23;92.80;102535.16;5114274;28;20189;-71
2021/12/15 02:17:53;;;;;;;26.03;17.07;;;;;;;8.29;92.67;102529.94;5095769;28;20551;-71
2021/12/15 02:20:35;;;;;;;19.20;15.30;;;;;;;8.28;92.65;102528.19;5095334;28;20212;-72
2021/12/15 02:23:04;;;;;;;28.00;14.70;;;;;;;8.33;93.08;102531.66;5129516;28;20192;-72
2021/12/15 02:25:31;;;;;;;24.13;15.97;;;;;;;8.29;93.03;102529.94;5113651;28;20676;-72
2021/12/15 02:28:08;;;;;;;15.53;13.53;;;;;;;8.22;93.04;102536.91;5095818;28;20690;-72
2021/12/15 02:31:34;;;;;;;21.83;14.40;;;;;;;8.23;93.22;102535.16;5095333;28;20678;-72
2021/12/15 02:38:48;;;;;;;18.90;14.97;;;;;;;8.15;93.28;102540.41;5129300;28;20209;-75
2021/12/15 02:41:20;;;;;;;21.80;14.37;;;;;;;8.19;93.25;102536.03;5095241;28;20221;-75
2021/12/15 02:43:56;;;;;;;23.10;14.80;;;;;;;8.20;93.09;102528.19;5130436;28;20272;-75
2021/12/15 02:46:23;;;;;;;24.60;15.53;;;;;;;8.18;93.07;102532.56;5095736;28;20166;-75
2021/12/15 02:48:50;;;;;;;19.30;13.87;;;;;;;8.17;93.32;102536.03;5095091;28;20204;-75
2021/12/15 02:51:19;;;;;;;27.97;14.73;;;;;;;8.15;93.34;102534.31;5113295;28;20704;-75
2021/12/15 02:53:46;;;;;;;19.67;14.13;;;;;;;8.16;93.62;102528.22;5113413;28;20184;-76
2021/12/15 02:56:14;;;;;;;26.90;16.57;;;;;;;8.20;93.44;102533.41;5113388;28;20178;-72
2021/12/15 02:58:52;;;;;;;20.33;15.23;;;;;;;8.14;93.64;102535.16;5113589;28;20292;-72
2021/12/15 03:01:31;;;;;;;23.20;15.43;;;;;;;8.18;93.56;102529.09;5114230;28;20493;-74
2021/12/15 03:06:35;;;;;;;23.17;14.40;;;;;;;8.13;93.80;102523.00;5113615;28;20188;-72
2021/12/15 03:09:32;;;;;;;17.87;13.50;;;;;;;8.16;93.62;102530.84;5113374;28;20787;-72
2021/12/15 03:17:23;;;;;;;20.57;15.13;;;;;;;8.21;93.98;102526.47;5117315;28;20615;-72
2021/12/15 03:19:51;;;;;;;26.67;14.97;;;;;;;8.21;93.82;102532.53;5116966;28;20216;-72
2021/12/15 03:22:18;;;;;;;26.57;15.37;;;;;;;8.22;94.15;102528.22;5116854;28;20204;-72
2021/12/15 03:24:45;;;;;;;22.93;14.10;;;;;;;8.33;94.10;102528.19;5116870;28;20181;-72
2021/12/15 03:27:18;;;;;;;27.53;14.83;;;;;;;8.31;93.92;102535.16;5098813;28;20186;-72
2021/12/15 03:35:22;;;;;;;26.93;15.47;;;;;;;8.24;94.02;102526.47;5116768;28;20176;-73
2021/12/15 03:37:56;;;;;;;22.53;16.10;;;;;;;8.34;93.85;102528.16;5117165;28;20185;-72
2021/12/15 03:40:27;;;;;;;24.00;15.40;;;;;;;8.23;93.88;102535.16;5117446;28;20185;-72
2021/12/15 03:43:03;;;;;;;25.43;16.63;;;;;;;8.24;94.05;102526.47;5117404;28;20546;-72
2021/12/15 03:45:38;;;;;;;29.17;15.37;;;;;;;8.25;94.61;102533.41;5116738;28;20181;-72
2021/12/15 03:48:09;;;;;;;22.83;15.87;;;;;;;8.30;94.52;102531.69;5116390;28;20583;-72
2021/12/15 03:50:36;;;;;;;24.60;15.00;;;;;;;8.22;95.17;102533.44;5116323;28;20209;-72
2021/12/15 03:53:04;;;;;;;27.83;15.93;;;;;;;8.29;94.87;102529.94;5116411;28;20193;-72
2021/12/15 03:55:33;;;;;;;25.53;15.47;;;;;;;8.21;95.25;102535.16;5116259;28;20196;-72
2021/12/15 03:58:02;;;;;;;27.37;14.37;;;;;;;8.22;95.40;102529.09;5098231;28;20192;-75
2021/12/15 04:00:29;;;;;;;24.63;15.03;;;;;;;8.32;95.35;102531.66;5116183;28;20188;-75
2021/12/15 04:02:57;;;;;;;27.37;15.73;;;;;;;8.33;95.20;102536.00;5116624;28;20185;-75
2021/12/15 04:05:25;;;;;;;24.83;16.70;;;;;;;8.27;95.41;102536.88;5116117;28;20199;-76
2021/12/15 04:07:52;;;;;;;23.53;15.60;;;;;;;8.37;95.41;102532.56;5116069;28;20192;-76
2021/12/15 04:10:22;;;;;;;28.37;16.97;;;;;;;8.32;95.49;102529.91;5115830;28;20216;-75
2021/12/15 04:12:49;;;;;;;33.23;16.80;;;;;;;8.28;95.61;102541.22;5116225;28;20642;-75
2021/12/15 04:17:57;;;;;;;24.87;16.20;;;;;;;8.18;96.04;102542.13;5116390;28;20219;-75
2021/12/15 04:20:29;;;;;;;30.10;16.57;;;;;;;8.27;96.04;102547.31;5116240;28;20611;-72
2021/12/15 04:22:57;;;;;;;28.83;17.03;;;;;;;8.21;96.04;102548.19;5131729;27;20185;-74
2021/12/15 04:25:28;;;;;;;27.63;16.90;;;;;;;8.16;96.13;102549.97;5116252;28;20611;-74
2021/12/15 04:28:01;;;;;;;37.73;18.87;;;;;;;8.15;96.14;102549.97;5097599;28;20166;-75
2021/12/15 04:30:31;;;;;;;40.87;19.10;;;;;;;8.15;96.38;102550.84;5115541;28;20205;-75
2021/12/15 04:33:03;;;;;;;44.23;19.20;;;;;;;8.19;95.86;102549.09;5115596;28;20177;-72
2021/12/15 04:35:30;;;;;;;39.23;19.00;;;;;;;8.22;96.04;102552.56;5098364;28;20530;-72
2021/12/15 04:37:57;;;;;;;44.80;18.27;;;;;;;8.25;96.17;102554.28;5115332;28;20666;-74
2021/12/15 04:40:23;;;;;;;37.00;19.23;;;;;;;8.28;95.67;102556.88;5115770;28;20599;-74
2021/12/15 04:42:50;;;;;;;40.70;20.80;;;;;;;8.14;96.06;102551.69;5115669;28;20177;-75
2021/12/15 04:45:19;;;;;;;42.97;20.40;;;;;;;8.15;95.95;102557.81;5115270;28;20188;-75
2021/12/15 04:47:50;;;;;;;47.00;19.27;;;;;;;8.15;96.18;102557.81;5115532;28;20176;-75
2021/12/15 04:50:20;;;;;;;39.53;20.03;;;;;;;8.21;95.98;102557.78;5115273;28;20209;-75
2021/12/15 04:52:47;;;;;;;47.27;18.90;;;;;;;8.16;96.23;102552.56;5131765;27;20176;-72
2021/12/15 04:55:17;;;;;;;36.67;18.53;;;;;;;8.19;96.24;102555.16;5115168;28;20177;-72
2021/12/15 04:57:44;;;;;;;36.47;17.80;;;;;;;8.25;96.19;102552.56;5115629;28;20246;-74
2021/12/15 05:00:17;;;;;;;38.53;19.53;;;;;;;8.21;95.87;102565.59;5114940;28;20204;-75
2021/12/15 05:02:44;;;;;;;31.80;17.20;;;;;;;8.15;96.20;102565.63;5115464;28;20168;-73
2021/12/15 05:05:11;;;;;;;39.60;19.50;;;;;;;8.19;96.20;102575.19;5115238;28;20193;-76
2021/12/15 05:07:38;;;;;;;46.10;18.60;;;;;;;8.20;96.39;102567.34;5114943;28;20188;-72
2021/12/15 05:10:08;;;;;;;41.00;18.30;;;;;;;8.28;96.29;102565.59;5114987;28;20547;-72
2021/12/15 05:12:36;;;;;;;41.17;18.77;;;;;;;8.26;95.98;102576.91;5115464;28;20185;-75
2021/12/15 05:15:05;;;;;;;33.83;17.27;;;;;;;8.16;96.47;102570.84;5115042;28;20182;-73
2021/12/15 05:17:32;;;;;;;40.70;17.67;;;;;;;8.29;96.33;102571.69;5114977;28;20177;-76
2021/12/15 05:20:03;;;;;;;38.00;18.97;;;;;;;8.26;96.17;102569.94;5115037;28;20209;-75
2021/12/15 05:22:31;;;;;;;42.80;19.13;;;;;;;8.22;96.24;102569.97;5114576;28;20200;-75
2021/12/15 05:24:58;;;;;;;41.13;18.97;;;;;;;8.23;96.14;102569.09;5114724;28;20204;-76
2021/12/15 05:27:25;;;;;;;33.77;18.43;;;;;;;8.30;96.16;102572.56;5114818;28;20193;-75
2021/12/15 05:29:52;;;;;;;45.83;19.03;;;;;;;8.35;95.84;102576.91;5114668;28;20613;-76
2021/12/15 05:32:21;;;;;;;37.33;17.77;;;;;;;8.32;95.98;102576.03;5114006;28;20205;-76
2021/12/15 05:34:51;;;;;;;34.07;17.60;;;;;;;8.23;96.25;102576.94;5114197;28;20192;-72
2021/12/15 05:37:21;;;;;;;40.03;17.83;;;;;;;8.25;96.54;102583.00;5114301;28;20192;-74
2021/12/15 05:39:49;;;;;;;34.83;17.27;;;;;;;8.20;96.47;102583.00;5114475;28;20226;-74
2021/12/15 05:42:19;;;;;;;30.47;17.17;;;;;;;8.31;96.38;102585.59;5114185;28;20188;-74
2021/12/15 05:44:46;;;;;;;29.70;17.40;;;;;;;8.21;96.48;102586.47;5114224;28;20203;-72
2021/12/15 05:47:14;;;;;;;36.57;18.10;;;;;;;8.28;96.41;102585.59;5096103;28;20558;-72
2021/12/15 05:49:41;;;;;;;36.50;18.37;;;;;;;8.13;96.68;102590.84;5114008;28;20213;-71
2021/12/15 05:52:08;;;;;;;29.67;16.23;;;;;;;8.18;96.90;102584.75;5114124;28;20220;-74
2021/12/15 05:54:35;;;;;;;26.53;16.43;;;;;;;8.20;96.78;102583.00;5114690;28;20259;-72
2021/12/15 05:57:03;;;;;;;25.27;16.07;;;;;;;8.26;96.59;102589.94;5114310;28;20188;-72
2021/12/15 05:59:29;;;;;;;27.50;15.10;;;;;;;8.22;96.75;102593.47;5114076;28;20213;-73
2021/12/15 06:01:57;;;;;;;30.00;15.93;;;;;;;8.15;96.88;102591.72;5113821;28;20203;-72
2021/12/15 06:04:24;;;;;;;26.17;15.57;;;;;;;8.21;96.80;102594.28;5114071;28;20185;-72
2021/12/15 06:06:50;;;;;;;30.03;17.13;;;;;;;8.15;96.91;102595.19;5113850;28;20200;-73
2021/12/15 06:09:17;;;;;;;28.60;16.57;;;;;;;8.21;96.78;102587.34;5114024;28;20548;-72
2021/12/15 06:11:49;;;;;;;31.37;17.10;;;;;;;8.24;96.66;102591.72;5113970;28;20528;-72
2021/12/15 06:14:23;;;;;;;25.93;14.97;;;;;;;8.24;96.75;102594.31;5096253;28;20169;-74
2021/12/15 06:16:55;;;;;;;27.83;16.03;;;;;;;8.31;96.50;102593.44;5113988;28;20177;-74
2021/12/15 06:19:21;;;;;;;35.80;15.90;;;;;;;8.29;96.64;102600.41;5113693;28;20216;-74
2021/12/15 06:21:53;;;;;;;19.33;13.53;;;;;;;8.30;96.65;102596.91;5113633;28;20189;-74
2021/12/15 06:24:26;;;;;;;21.17;13.43;;;;;;;8.28;96.62;102601.25;5097051;28;20173;-74
2021/12/15 06:26:54;;;;;;;24.30;16.07;;;;;;;8.36;96.57;102599.56;5113971;28;20191;-72
2021/12/15 06:29:20;;;;;;;28.43;16.20;;;;;;;8.19;96.57;102607.34;5113558;28;20212;-74
2021/12/15 06:31:47;;;;;;;23.93;16.13;;;;;;;8.26;96.55;102600.38;5113818;28;20560;-73
2021/12/15 06:34:15;;;;;;;31.83;15.97;;;;;;;8.21;96.65;102604.72;5114008;28;20181;-72
2021/12/15 06:36:42;;;;;;;28.93;15.50;;;;;;;8.20;96.70;102613.44;5096065;28;20189;-72
2021/12/15 06:39:13;;;;;;;27.17;14.80;;;;;;;8.23;96.76;102610.84;5113568;28;20569;-72
2021/12/15 06:41:40;;;;;;;24.93;14.83;;;;;;;8.16;96.41;102612.59;5113501;28;20547;-72
2021/12/15 06:44:07;;;;;;;26.40;14.70;;;;;;;8.07;96.94;102616.91;5113782;28;20189;-74
2021/12/15 06:59:43;;;;;;;21.50;13.50;;;;;;;8.24;96.65;102621.28;5117549;28;20220;-72
2021/12/15 07:02:10;;;;;;;24.30;14.47;;;;;;;8.15;97.11;102636.06;5117370;28;20181;-74
2021/12/15 07:04:37;;;;;;;23.73;14.77;;;;;;;8.22;97.23;102638.69;5099276;28;20654;-75
2021/12/15 07:07:04;;;;;;;29.27;14.67;;;;;;;8.23;96.90;102634.34;5117455;28;20186;-75
2021/12/15 07:09:33;;;;;;;28.40;14.47;;;;;;;8.22;96.88;102635.22;5117392;28;20217;-75
2021/12/15 07:12:01;;;;;;;30.40;15.13;;;;;;;8.21;96.89;102641.28;5117130;28;20227;-72
2021/12/15 07:14:28;;;;;;;19.77;15.10;;;;;;;8.21;97.06;102634.31;5099679;28;20287;-72
2021/12/15 07:16:57;;;;;;;23.87;14.47;;;;;;;8.22;96.75;102632.59;5117289;28;20189;-72
2021/12/15 07:22:07;;;;;;;22.13;15.50;;;;;;;8.30;96.88;102635.19;5116982;28;20197;-72
2021/12/15 07:24:37;;;;;;;27.57;15.27;;;;;;;8.31;96.81;102634.31;5098669;28;20223;-72
2021/12/15 07:27:05;;;;;;;28.10;17.10;;;;;;;8.29;96.82;102634.31;5117111;28;20197;-72
2021/12/15 07:29:33;;;;;;;29.60;16.80;;;;;;;8.33;96.71;102635.19;5116656;28;20205;-72
2021/12/15 07:32:00;;;;;;;25.40;15.67;;;;;;;8.32;96.68;102634.31;5117042;28;20205;-74
2021/12/15 07:34:27;;;;;;;22.73;14.53;;;;;;;8.30;96.58;102638.69;5116747;28;20284;-73
2021/12/15 07:36:54;;;;;;;22.23;14.93;;;;;;;8.24;96.84;102651.72;5116738;28;20200;-74
2021/12/15 07:39:21;;;;;;;23.83;14.63;;;;;;;8.28;96.69;102645.63;5116553;28;20217;-73
2021/12/15 07:41:50;;;;;;;26.20;15.43;;;;;;;8.21;96.94;102651.72;5116792;28;20177;-72
2021/12/15 07:44:20;;;;;;;20.67;14.13;;;;;;;8.23;97.09;102655.22;5116475;28;20203;-72
2021/12/15 07:46:52;;;;;;;21.43;14.03;;;;;;;8.24;96.95;102655.19;5116511;28;20238;-72
2021/12/15 07:49:21;;;;;;;30.30;14.77;;;;;;;8.28;96.99;102656.06;5116639;28;20251;-72
2021/12/15 07:51:52;;;;;;;22.63;15.17;;;;;;;8.26;96.96;102652.59;5116193;28;20205;-72
2021/12/15 07:54:19;;;;;;;21.07;14.30;;;;;;;8.26;97.09;102655.19;5116904;28;20174;-72
2021/12/15 07:56:47;;;;;;;20.23;14.53;;;;;;;8.32;97.01;102655.19;5131855;27;20209;-72
2021/12/15 07:59:13;;;;;;;22.80;13.73;;;;;;;8.30;96.74;102664.78;5116255;28;20320;-72
2021/12/15 08:01:40;;;;;;;21.90;15.80;;;;;;;8.34;96.85;102656.06;5116826;28;20177;-72
2021/12/15 08:04:07;;;;;;;26.60;16.10;;;;;;;8.30;97.14;102656.94;5116665;28;20345;-72
2021/12/15 08:06:33;;;;;;;24.17;15.53;;;;;;;8.34;97.14;102652.56;5116511;28;20189;-72
2021/12/15 08:09:05;;;;;;;21.20;14.00;;;;;;;8.35;97.29;102650.00;5116264;28;20201;-72
2021/12/15 08:11:32;;;;;;;25.60;15.03;;;;;;;8.37;96.60;102653.50;5116206;28;20208;-74
2021/12/15 08:13:58;;;;;;;31.37;15.40;;;;;;;8.34;96.88;102656.06;5115973;28;20238;-75
2021/12/15 08:16:25;;;;;;;26.43;14.90;;;;;;;8.33;97.02;102656.06;5115914;28;20196;-75
2021/12/15 08:18:52;;;;;;;24.97;15.40;;;;;;;8.40;96.76;102653.47;5115923;28;20698;-72
2021/12/15 08:21:18;;;;;;;25.03;15.27;;;;;;;8.48;96.28;102653.47;5115937;28;20189;-72
2021/12/15 08:23:45;;;;;;;26.47;15.27;;;;;;;8.45;96.08;102658.69;5116086;28;20189;-72
2021/12/15 08:26:11;;;;;;;24.90;14.70;;;;;;;8.39;96.20;102656.97;5097662;28;20193;-72
2021/12/15 08:28:38;;;;;;;24.23;15.60;;;;;;;8.43;96.38;102663.03;5097478;28;20224;-72
2021/12/15 08:31:05;;;;;;;33.50;16.80;;;;;;;8.45;96.35;102662.19;5115564;28;20189;-72
2021/12/15 08:33:33;;;;;;;41.43;18.07;;;;;;;8.38;96.42;102664.81;5115850;28;20185;-72
2021/12/15 08:36:05;;;;;;;31.70;16.87;;;;;;;8.38;96.51;102670.88;5097291;28;20601;-72
2021/12/15 08:38:34;;;;;;;35.47;16.73;;;;;;;8.36;96.60;102680.47;5097836;28;20212;-72
2021/12/15 08:41:05;;;;;;;40.13;19.27;;;;;;;8.34;96.47;102674.31;5097192;28;20193;-72
2021/12/15 08:43:33;;;;;;;43.57;21.17;;;;;;;8.36;96.52;102683.06;5115736;28;20169;-72
2021/12/15 08:46:10;;;;;;;48.50;20.27;;;;;;;8.42;95.95;102682.19;5114206;27;20258;-72
2021/12/15 08:48:38;;;;;;;47.07;20.53;;;;;;;8.30;96.62;102680.44;5097549;28;20201;-72
2021/12/15 08:51:08;;;;;;;44.80;19.93;;;;;;;8.37;96.45;102682.19;5115718;28;20196;-72
2021/12/15 08:53:41;;;;;;;52.20;19.37;;;;;;;8.45;96.19;102674.38;5115735;28;20638;-72
2021/12/15 08:56:08;;;;;;;36.57;19.00;;;;;;;8.51;96.30;102676.97;5115509;28;20607;-72
2021/12/15 08:58:36;;;;;;;45.17;21.37;;;;;;;8.47;96.28;102689.13;5114615;28;20204;-72
2021/12/15 09:01:04;;;;;;;42.40;20.27;;;;;;;8.45;96.25;102693.50;5114850;28;20189;-72
2021/12/15 09:03:32;;;;;;;49.77;20.20;;;;;;;8.49;96.03;102691.75;5115039;28;20273;-72
2021/12/15 09:06:00;;;;;;;41.77;20.00;;;;;;;8.47;96.33;102693.50;5114726;28;20234;-72
2021/12/15 09:08:28;;;;;;;35.50;18.20;;;;;;;8.44;96.43;102686.56;5113764;28;20212;-72
2021/12/15 09:10:58;;;;;;;39.10;19.63;;;;;;;8.57;96.00;102687.38;5114749;28;20182;-72
2021/12/15 09:13:30;;;;;;;38.00;18.27;;;;;;;8.56;95.99;102688.25;5096533;28;20204;-72
2021/12/15 09:16:02;;;;;;;41.93;19.80;;;;;;;8.52;96.18;102695.25;5115267;28;20185;-72
2021/12/15 09:18:29;;;;;;;48.50;19.07;;;;;;;8.57;96.17;102689.13;5096742;28;20287;-71
2021/12/15 09:20:57;;;;;;;36.03;19.37;;;;;;;8.51;95.99;102700.47;5096765;28;20284;-71
2021/12/15 09:23:23;;;;;;;37.50;18.83;;;;;;;8.65;95.71;102690.00;5114627;28;20177;-71
2021/12/15 09:25:50;;;;;;;39.70;18.70;;;;;;;8.65;95.57;102692.63;5096342;28;20181;-71
2021/12/15 09:28:19;;;;;;;35.17;16.93;;;;;;;8.58;95.61;102694.38;5114530;28;20208;-72
2021/12/15 09:30:48;;;;;;;34.53;17.97;;;;;;;8.65;95.45;102700.47;5115018;28;20189;-72
2021/12/15 09:33:28;;;;;;;33.90;18.13;;;;;;;8.52;95.64;102695.25;5130235;27;20227;-71
2021/12/15 09:35:56;;;;;;;38.07;19.73;;;;;;;8.57;95.67;102702.19;5096368;28;20177;-71
2021/12/15 09:38:24;;;;;;;36.33;19.43;;;;;;;8.64;95.71;102703.91;5114363;28;20201;-72
2021/12/15 09:40:54;;;;;;;32.63;18.30;;;;;;;8.64;95.62;102714.34;5114252;28;20234;-71
2021/12/15 09:43:21;;;;;;;33.20;17.20;;;;;;;8.63;95.70;102715.22;5114616;28;20181;-71
2021/12/15 09:45:55;;;;;;;39.90;18.30;;;;;;;8.62;95.45;102710.88;5114521;28;20209;-71
2021/12/15 10:02:30;;;;;;;29.43;17.40;;;;;;;8.69;95.23;102707.41;5129983;27;20188;-75
2021/12/15 10:19:09;;;;;;;35.87;17.00;;;;;;;8.69;94.94;102707.41;5011268;28;20294;-72
2021/12/15 10:21:35;;;;;;;31.00;17.83;;;;;;;8.76;94.94;102704.78;5011726;28;20204;-74
2021/12/15 10:24:04;;;;;;;47.37;18.60;;;;;;;8.79;94.93;102699.56;5069411;28;20212;-74
2021/12/15 10:26:31;;;;;;;33.80;17.77;;;;;;;8.85;94.77;102700.41;5114029;28;20185;-74
2021/12/15 10:29:05;;;;;;;29.43;17.00;;;;;;;8.80;95.05;102706.50;5113857;28;20258;-74
2021/12/15 10:31:31;;;;;;;37.33;17.47;;;;;;;8.86;94.76;102692.59;5113863;28;20185;-75
2021/12/15 10:34:03;;;;;;;31.40;17.53;;;;;;;8.75;95.04;102700.41;5113670;28;20196;-75
2021/12/15 10:36:33;;;;;;;30.20;17.60;;;;;;;8.78;95.17;102700.41;5114196;28;20265;-72
2021/12/15 10:39:04;;;;;;;29.97;17.70;;;;;;;8.81;95.28;102717.84;5113508;28;20254;-72
2021/12/15 10:41:37;;;;;;;50.00;20.67;;;;;;;8.86;94.85;102705.63;5113591;28;20182;-72
2021/12/15 10:44:14;;;;;;;29.60;18.67;;;;;;;8.84;94.78;102707.38;5114374;28;20174;-71
2021/12/15 10:46:46;;;;;;;36.77;19.30;;;;;;;8.86;94.66;102696.91;5113825;28;20177;-74
2021/12/15 10:49:15;;;;;;;38.23;19.87;;;;;;;8.83;94.72;102703.03;5095113;28;20282;-74
2021/12/15 10:51:45;;;;;;;45.50;21.33;;;;;;;8.86;95.09;102708.25;5113690;28;20182;-75
2021/12/15 10:54:15;;;;;;;45.37;21.10;;;;;;;8.86;94.76;102705.63;5113255;28;20189;-72
2021/12/15 10:56:55;;;;;;;37.73;20.97;;;;;;;8.89;94.91;102705.63;5113290;28;20178;-71
2021/12/15 10:59:26;;;;;;;49.43;20.87;;;;;;;8.86;94.85;102699.53;5112939;28;20747;-71
2021/12/15 11:02:12;;;;;;;37.63;20.20;;;;;;;8.92;94.58;102702.13;5112907;28;20192;-73
2021/12/15 11:04:39;;;;;;;42.33;22.33;;;;;;;8.96;94.73;102699.50;5113432;28;20615;-72
2021/12/15 11:07:11;;;;;;;48.07;21.97;;;;;;;8.89;94.99;102705.63;5112901;28;20223;-72
2021/12/15 11:09:49;;;;;;;32.77;19.27;;;;;;;8.93;95.13;102702.16;5112759;28;20244;-72
2021/12/15 11:12:33;;;;;;;38.33;20.70;;;;;;;8.92;95.09;102704.72;5113167;28;20242;-72
2021/12/15 11:15:06;;;;;;;39.70;18.83;;;;;;;8.95;95.02;102697.78;5113563;28;20178;-71
2021/12/15 11:17:54;;;;;;;41.83;20.20;;;;;;;8.95;94.79;102696.91;5129039;28;20189;-71
2021/12/15 11:20:30;;;;;;;40.47;20.17;;;;;;;9.05;94.28;102696.84;5113153;28;20197;-72
2021/12/15 11:23:07;;;;;;;42.63;19.27;;;;;;;8.99;94.40;102702.09;5113712;28;20180;-71
2021/12/15 11:25:45;;;;;;;34.00;19.20;;;;;;;9.02;94.54;102696.88;5113562;28;20227;-71
2021/12/15 11:28:23;;;;;;;42.60;20.20;;;;;;;9.03;94.82;102698.63;5113721;28;20185;-74
2021/12/15 11:30:52;;;;;;;35.30;20.40;;;;;;;8.95;94.68;102695.16;5114013;28;20178;-74
2021/12/15 11:33:22;;;;;;;40.77;21.47;;;;;;;9.05;94.49;102690.75;5116656;28;20205;-74
2021/12/15 11:36:06;;;;;;;38.00;20.90;;;;;;;9.07;94.47;102700.34;5117011;28;20173;-74
2021/12/15 11:38:35;;;;;;;37.67;21.30;;;;;;;9.03;94.44;102698.63;5117235;28;20604;-72
2021/12/15 11:41:15;;;;;;;38.70;21.60;;;;;;;9.01;94.38;102689.06;5116926;28;20290;-71
2021/12/15 11:43:45;;;;;;;40.57;21.90;;;;;;;9.00;93.95;102688.19;5117129;28;20193;-71
2021/12/15 11:46:28;;;;;;;40.40;21.13;;;;;;;9.03;94.09;102693.38;5116736;28;20659;-71
2021/12/15 11:49:00;;;;;;;44.13;22.13;;;;;;;9.09;93.88;102687.28;5116708;28;20262;-72
2021/12/15 11:51:35;;;;;;;43.37;22.03;;;;;;;9.00;94.20;102682.06;5116405;28;20174;-71
2021/12/15 11:54:03;;;;;;;40.50;21.77;;;;;;;9.03;94.18;102688.16;5116646;28;20197;-71
2021/12/15 11:56:35;;;;;;;37.57;20.00;;;;;;;8.97;94.58;102688.19;5116505;28;20186;-75
2021/12/15 11:59:20;;;;;;;36.37;21.27;;;;;;;8.90;94.39;102690.81;5116198;28;20217;-74
2021/12/15 12:01:46;;;;;;;43.60;21.10;;;;;;;8.95;94.39;102689.94;5116283;28;20185;-74
2021/12/15 12:04:33;;;;;;;48.40;21.77;;;;;;;8.87;94.56;102688.22;5116187;28;20166;-71
2021/12/15 12:07:17;;;;;;;35.70;20.87;;;;;;;8.81;94.85;102686.50;5116782;28;20169;-71
2021/12/15 12:09:48;;;;;;;48.57;20.57;;;;;;;8.84;94.66;102683.84;5116100;28;20618;-71
2021/12/15 12:12:17;;;;;;;38.70;20.50;;;;;;;8.78;94.98;102683.88;5097575;28;20215;-74
2021/12/15 12:14:50;;;;;;;40.93;21.00;;;;;;;8.77;95.09;102685.59;5115898;28;20196;-74
2021/12/15 12:17:26;;;;;;;45.07;21.57;;;;;;;8.81;95.10;102694.31;5116262;28;20170;-74
2021/12/15 12:19:57;;;;;;;47.07;21.70;;;;;;;8.83;94.91;102680.38;5115931;28;20270;-75
2021/12/15 12:22:28;;;;;;;44.50;20.77;;;;;;;8.79;95.13;102688.25;5115814;28;20189;-74
2021/12/15 12:24:57;;;;;;;46.13;20.03;;;;;;;8.86;95.01;102679.53;5116074;28;20180;-74
2021/12/15 12:27:27;;;;;;;43.40;21.03;;;;;;;8.88;94.74;102676.91;5116018;28;20531;-74
2021/12/15 12:29:56;;;;;;;46.37;20.07;;;;;;;8.87;94.71;102683.88;5115976;28;20216;-75
2021/12/15 12:32:23;;;;;;;36.43;19.00;;;;;;;8.87;94.63;102686.47;5115610;28;20199;-74
2021/12/15 12:34:52;;;;;;;39.93;20.43;;;;;;;8.87;94.67;102678.66;5116076;28;20575;-74
2021/12/15 12:37:19;;;;;;;33.53;20.03;;;;;;;8.85;94.91;102677.75;5116124;28;20181;-75
2021/12/15 12:39:53;;;;;;;34.30;18.70;;;;;;;8.91;94.94;102680.34;5115978;28;20204;-71
2021/12/15 12:42:31;;;;;;;49.27;20.33;;;;;;;8.96;94.52;102676.00;5115842;28;20165;-75
2021/12/15 12:45:39;;;;;;;37.77;19.67;;;;;;;8.88;94.95;102683.00;5115424;28;20177;-71
2021/12/15 12:59:39;;;;;;;49.73;20.97;;;;;;;9.07;93.65;102673.34;5115267;28;20211;-74
2021/12/15 13:02:39;;;;;;;40.87;20.27;;;;;;;9.12;93.90;102665.47;5115006;28;20171;-74